Dairyland, Wisconsin
Current Conditions -  °F | °C
As of 10:55 AM on Monday 22 Dec 2014 (Local Time) from KRZN Reporting Station
Haze Haze  
Wind Chill: 27°   Ceiling: 600
Heat Index: 35°   Visibility: 2mi
Dew Point: 34°   Wind: 9mph
Humidity: 97%   Direction: 140°SE
Pressure: 29.69"   Gusts: NA
Location:  46.1107°N, 92.219°W
Report Text: KRZN 221655Z AUTO 14008KT 2SM BR OVC006 02/01 A2969 RMK AO2 T00150011
Loading
Personal Weather Stations






























Interactive Weather Map New forecast layout! Learn more

10-Day Weather Forecast

Advertisements
Track Severe Weather on mobile